createdAt,value
2022-11-27T00:01:40.553Z,58.57
2022-11-27T00:04:09.994Z,62.33
2022-11-27T00:06:43.543Z,63.50
2022-11-27T00:09:16.531Z,58.77
2022-11-27T00:11:49.725Z,63.67
2022-11-27T00:14:18.700Z,63.80
2022-11-27T00:16:47.517Z,62.60
2022-11-27T00:19:16.577Z,60.13
2022-11-27T00:21:49.404Z,63.43
2022-11-27T00:24:17.567Z,60.70
2022-11-27T00:26:46.815Z,62.13
2022-11-27T00:29:14.894Z,65.43
2022-11-27T00:31:43.116Z,63.83
2022-11-27T00:34:13.646Z,59.43
2022-11-27T00:36:47.846Z,69.37
2022-11-27T00:39:17.539Z,58.10
2022-11-27T00:41:46.014Z,57.70
2022-11-27T00:44:14.540Z,54.00
2022-11-27T00:46:46.665Z,58.90
2022-11-27T00:49:16.626Z,63.50
2022-11-27T00:51:44.996Z,60.23
2022-11-27T00:54:14.086Z,54.43
2022-11-27T00:56:43.531Z,60.20
2022-11-27T00:59:13.286Z,60.80
2022-11-27T01:01:43.164Z,58.77
2022-11-27T01:04:16.563Z,58.37
2022-11-27T01:06:47.379Z,60.50
2022-11-27T01:09:16.589Z,54.07
2022-11-27T01:11:46.069Z,56.50
2022-11-27T01:14:16.545Z,54.33
2022-11-27T01:16:48.357Z,54.43
2022-11-27T01:19:16.936Z,60.53
2022-11-27T01:21:46.454Z,65.50
2022-11-27T01:24:16.524Z,61.33
2022-11-27T01:26:47.458Z,57.40
2022-11-27T01:29:17.618Z,60.80
2022-11-27T01:31:45.904Z,55.83
2022-11-27T01:34:18.631Z,64.87
2022-11-27T01:36:47.048Z,60.33
2022-11-27T01:39:17.601Z,60.20
2022-11-27T01:41:48.668Z,57.43
2022-11-27T01:44:59.533Z,55.27
2022-11-27T01:47:41.582Z,53.13
2022-11-27T01:50:20.487Z,54.87
2022-11-27T01:52:53.276Z,52.23
2022-11-27T01:55:29.464Z,55.20
2022-11-27T01:58:02.948Z,56.20
2022-11-27T02:00:31.083Z,57.73
2022-11-27T02:03:01.536Z,47.30
2022-11-27T02:05:30.554Z,49.30
2022-11-27T02:08:00.624Z,52.50
2022-11-27T02:10:38.028Z,52.93
2022-11-27T02:13:17.719Z,49.60
2022-11-27T02:15:50.595Z,48.37
2022-11-27T02:18:26.555Z,47.10
2022-11-27T02:21:04.235Z,51.83
2022-11-27T02:23:51.902Z,47.97
2022-11-27T02:27:06.540Z,50.37
2022-11-27T02:29:40.438Z,53.53
2022-11-27T02:32:15.552Z,56.30
2022-11-27T02:34:50.465Z,53.60
2022-11-27T02:37:23.775Z,55.03
2022-11-27T02:40:03.224Z,57.60
2022-11-27T02:42:37.666Z,57.77
2022-11-27T02:45:12.157Z,60.00
2022-11-27T02:47:45.695Z,61.00
2022-11-27T02:50:19.310Z,60.13
2022-11-27T02:52:53.680Z,61.07
2022-11-27T02:55:25.442Z,63.83
2022-11-27T02:57:57.590Z,59.37
2022-11-27T03:00:29.346Z,60.10
2022-11-27T03:03:01.637Z,55.57
2022-11-27T03:05:37.664Z,56.37
2022-11-27T03:08:09.189Z,61.30
2022-11-27T03:10:45.512Z,59.73
2022-11-27T03:13:13.657Z,64.47
2022-11-27T03:15:51.912Z,55.53
2022-11-27T03:18:27.584Z,61.60
2022-11-27T03:21:05.464Z,61.13
2022-11-27T03:23:34.584Z,62.87
2022-11-27T03:26:02.557Z,65.10
2022-11-27T03:28:31.961Z,64.17
2022-11-27T03:31:01.614Z,63.23
2022-11-27T03:33:30.185Z,60.23
2022-11-27T03:35:58.605Z,63.93
2022-11-27T03:38:26.663Z,61.63
2022-11-27T03:41:01.484Z,60.47
2022-11-27T03:43:34.868Z,67.93
2022-11-27T03:46:11.630Z,68.70
2022-11-27T03:48:53.070Z,71.93
2022-11-27T03:51:25.424Z,67.03
2022-11-27T03:54:01.598Z,70.73
2022-11-27T03:56:38.553Z,73.67
2022-11-27T03:59:13.704Z,71.67
2022-11-27T04:01:43.670Z,68.93
2022-11-27T04:04:18.772Z,72.70
2022-11-27T04:06:47.620Z,72.70
2022-11-27T04:09:15.620Z,66.90
2022-11-27T04:11:43.580Z,68.73
2022-11-27T04:14:12.484Z,71.03
2022-11-27T04:16:45.552Z,74.17
2022-11-27T04:19:13.656Z,77.10
2022-11-27T04:21:41.622Z,78.43
2022-11-27T04:24:10.316Z,73.93
2022-11-27T04:26:38.362Z,78.30
2022-11-27T04:29:06.344Z,81.50
2022-11-27T04:31:34.706Z,79.87
2022-11-27T04:34:05.502Z,80.37
2022-11-27T04:36:38.989Z,79.00
2022-11-27T04:39:07.615Z,80.20
2022-11-27T04:41:35.632Z,79.03
2022-11-27T04:44:07.645Z,75.80
2022-11-27T04:46:36.108Z,79.70
2022-11-27T04:49:07.592Z,77.93
2022-11-27T04:51:36.504Z,74.17
2022-11-27T04:54:08.104Z,73.93
2022-11-27T04:56:37.180Z,77.10
2022-11-27T04:59:05.583Z,77.23
2022-11-27T05:01:34.590Z,77.57
2022-11-27T05:04:03.644Z,71.83
2022-11-27T05:06:36.396Z,73.50
2022-11-27T05:09:05.612Z,79.00
2022-11-27T05:11:34.235Z,73.50
2022-11-27T05:14:18.520Z,85.60
2022-11-27T05:19:41.662Z,78.13
2022-11-27T05:22:11.633Z,82.97
2022-11-27T05:24:43.433Z,75.40
2022-11-27T05:27:12.649Z,77.67
2022-11-27T05:29:40.618Z,79.00
2022-11-27T05:32:09.643Z,75.87
2022-11-27T05:34:37.914Z,75.43
2022-11-27T05:37:09.589Z,74.70
2022-11-27T05:39:38.937Z,81.37
2022-11-27T05:42:07.661Z,77.67
2022-11-27T05:44:36.516Z,78.97
2022-11-27T05:47:04.719Z,77.70
2022-11-27T05:49:32.858Z,79.70
2022-11-27T05:52:06.742Z,75.23
2022-11-27T05:54:34.770Z,75.90
2022-11-27T05:57:04.256Z,75.53
2022-11-27T05:59:32.291Z,76.17
2022-11-27T06:02:00.697Z,81.17
2022-11-27T06:04:34.708Z,83.37
2022-11-27T06:07:03.635Z,84.63
2022-11-27T06:09:32.612Z,83.53
2022-11-27T06:12:01.631Z,96.73
2022-11-27T06:14:32.418Z,101.60
2022-11-27T06:17:02.658Z,99.90
2022-11-27T06:19:31.416Z,96.67
2022-11-27T06:21:59.656Z,89.77
2022-11-27T06:24:28.628Z,96.70
2022-11-27T06:26:57.288Z,93.73
2022-11-27T06:29:29.420Z,98.17
2022-11-27T06:31:58.862Z,103.00
2022-11-27T06:34:27.655Z,88.17
2022-11-27T06:36:56.532Z,101.30
2022-11-27T06:39:25.614Z,95.53
2022-11-27T06:41:57.480Z,97.70
2022-11-27T06:44:26.397Z,96.63
2022-11-27T06:46:55.694Z,107.40
2022-11-27T06:49:25.044Z,98.07
2022-11-27T06:51:53.615Z,99.07
2022-11-27T06:54:24.594Z,98.33
2022-11-27T06:56:53.622Z,103.17
2022-11-27T06:59:22.290Z,107.03
2022-11-27T07:01:50.329Z,106.43
2022-11-27T07:04:18.636Z,108.90
2022-11-27T07:06:48.552Z,110.67
2022-11-27T07:09:19.118Z,105.37
2022-11-27T07:11:47.173Z,113.40
2022-11-27T07:14:16.272Z,105.33
2022-11-27T07:16:44.360Z,110.87
2022-11-27T07:19:12.370Z,108.97
2022-11-27T07:21:40.949Z,113.30
2022-11-27T07:24:14.062Z,110.20
2022-11-27T07:26:42.113Z,105.17
2022-11-27T07:29:10.363Z,110.97
2022-11-27T07:31:38.364Z,102.97
2022-11-27T07:34:13.412Z,105.67
2022-11-27T07:36:44.300Z,107.50
2022-11-27T07:39:13.653Z,108.17
2022-11-27T07:41:41.652Z,107.37
2022-11-27T07:44:10.904Z,101.93
2022-11-27T07:46:38.917Z,105.93
2022-11-27T07:49:09.485Z,101.87
2022-11-27T07:51:37.784Z,109.53
2022-11-27T07:54:06.059Z,99.63
2022-11-27T07:56:35.537Z,100.40
2022-11-27T07:59:03.618Z,101.23
2022-11-27T08:01:31.715Z,104.90
2022-11-27T08:03:59.884Z,93.70
2022-11-27T08:06:31.272Z,98.47
2022-11-27T08:08:59.241Z,98.23
2022-11-27T08:11:30.167Z,92.83
2022-11-27T08:14:04.377Z,95.37
2022-11-27T08:16:33.687Z,94.03
2022-11-27T08:19:01.977Z,81.33
2022-11-27T08:21:30.823Z,87.67
2022-11-27T08:23:59.090Z,90.87
2022-11-27T08:26:28.724Z,90.27
2022-11-27T08:29:01.640Z,91.53
2022-11-27T08:31:29.768Z,88.97
2022-11-27T08:33:57.850Z,88.60
2022-11-27T08:36:28.570Z,88.67
2022-11-27T08:38:57.127Z,88.73
2022-11-27T08:41:29.552Z,84.10
2022-11-27T08:43:58.937Z,86.00
2022-11-27T08:46:27.068Z,92.83
2022-11-27T08:48:55.178Z,88.27
2022-11-27T08:51:23.138Z,84.30
2022-11-27T08:53:51.676Z,90.27
2022-11-27T08:56:22.577Z,86.20
2022-11-27T08:58:51.844Z,83.67
2022-11-27T09:01:23.332Z,75.83
2022-11-27T09:03:52.867Z,85.70
2022-11-27T09:06:25.558Z,85.77
2022-11-27T09:08:54.693Z,85.27
2022-11-27T09:11:23.350Z,87.03
2022-11-27T09:13:51.520Z,89.33
2022-11-27T09:16:26.650Z,91.00
2022-11-27T09:18:55.129Z,89.50
2022-11-27T09:21:27.617Z,86.73
2022-11-27T09:23:57.687Z,91.93
2022-11-27T09:26:28.608Z,87.90
2022-11-27T09:28:59.700Z,82.73
2022-11-27T09:31:29.700Z,80.33
2022-11-27T09:34:02.436Z,83.10
2022-11-27T09:36:30.663Z,80.27
2022-11-27T09:39:00.359Z,75.50
2022-11-27T09:41:39.923Z,80.73
2022-11-27T09:44:23.028Z,78.10
2022-11-27T09:46:54.368Z,80.37
2022-11-27T09:49:28.761Z,80.73
2022-11-27T09:52:01.203Z,79.73
2022-11-27T09:54:36.260Z,78.70
2022-11-27T09:57:07.476Z,77.90
2022-11-27T09:59:44.595Z,73.27
2022-11-27T10:02:20.816Z,78.83
2022-11-27T10:05:12.784Z,74.70
2022-11-27T10:07:49.784Z,73.73
2022-11-27T10:10:33.843Z,78.57
2022-11-27T10:13:11.801Z,69.80
2022-11-27T10:15:45.711Z,76.70
2022-11-27T10:18:24.748Z,68.70
2022-11-27T10:20:57.482Z,70.83
2022-11-27T10:23:44.782Z,73.87
2022-11-27T10:26:18.384Z,75.60
2022-11-27T10:28:56.772Z,72.53
2022-11-27T10:31:34.472Z,72.37
2022-11-27T10:34:12.817Z,70.70
2022-11-27T10:36:44.972Z,69.40
2022-11-27T10:39:20.133Z,68.47
2022-11-27T10:41:54.826Z,68.57
2022-11-27T10:44:29.114Z,72.23
2022-11-27T10:47:02.814Z,69.13
2022-11-27T10:49:34.964Z,67.83
2022-11-27T10:52:03.207Z,65.73
2022-11-27T10:54:35.654Z,63.50
2022-11-27T10:57:30.157Z,63.50
2022-11-27T11:00:06.736Z,66.30
2022-11-27T11:02:37.294Z,65.97
2022-11-27T11:08:18.920Z,61.17
2022-11-27T11:10:54.498Z,63.63
2022-11-27T11:13:27.324Z,60.67
2022-11-27T11:15:58.748Z,62.70
2022-11-27T11:18:30.296Z,61.13
2022-11-27T11:21:02.125Z,60.77
2022-11-27T11:23:34.790Z,61.80
2022-11-27T11:26:06.775Z,62.47
2022-11-27T11:28:40.486Z,57.70
2022-11-27T11:31:12.798Z,56.90
2022-11-27T11:33:49.828Z,59.47
2022-11-27T11:36:20.275Z,59.77
2022-11-27T11:38:49.774Z,62.17
2022-11-27T11:41:19.013Z,61.13
2022-11-27T11:43:59.787Z,58.07
2022-11-27T11:46:36.472Z,60.53
2022-11-27T11:49:08.461Z,56.23
2022-11-27T11:52:24.840Z,54.57
2022-11-27T11:55:04.186Z,58.57
2022-11-27T11:58:10.243Z,60.67
2022-11-27T12:01:11.891Z,56.43
2022-11-27T12:03:42.076Z,57.77
2022-11-27T12:06:24.695Z,59.00
2022-11-27T12:09:04.318Z,61.77
2022-11-27T12:11:40.931Z,56.33
2022-11-27T12:14:25.885Z,58.30
2022-11-27T12:17:07.330Z,61.17
2022-11-27T12:19:52.272Z,57.70
2022-11-27T12:22:37.413Z,58.23
2022-11-27T12:25:19.496Z,59.37
2022-11-27T12:28:06.047Z,57.20
2022-11-27T12:30:44.184Z,56.63
2022-11-27T12:33:31.943Z,57.57
2022-11-27T12:36:09.579Z,58.40
2022-11-27T12:38:50.109Z,56.17
2022-11-27T12:41:40.249Z,58.33
2022-11-27T12:44:18.586Z,59.17
2022-11-27T12:47:00.498Z,58.77
2022-11-27T12:49:33.721Z,54.27
2022-11-27T12:52:11.876Z,56.20
2022-11-27T12:54:48.429Z,54.70
2022-11-27T12:57:24.308Z,55.40
2022-11-27T12:59:59.867Z,52.33
2022-11-27T13:02:35.549Z,52.73
2022-11-27T13:05:07.268Z,61.63
2022-11-27T13:07:44.997Z,63.83
2022-11-27T13:10:21.832Z,55.73
2022-11-27T13:12:59.206Z,53.80
2022-11-27T13:15:34.058Z,51.60
2022-11-27T13:18:08.758Z,49.93
2022-11-27T13:20:41.344Z,52.60
2022-11-27T13:23:11.061Z,53.27
2022-11-27T13:25:44.103Z,54.70
2022-11-27T13:28:25.414Z,55.10
2022-11-27T13:30:59.796Z,53.90
2022-11-27T13:33:37.363Z,50.67
2022-11-27T13:36:20.969Z,56.23
2022-11-27T13:38:55.719Z,53.57
2022-11-27T13:41:33.769Z,60.53
2022-11-27T13:44:04.894Z,55.63
2022-11-27T13:46:49.499Z,52.87
2022-11-27T13:49:28.618Z,61.53
2022-11-27T13:52:09.635Z,59.27
2022-11-27T13:54:39.009Z,57.50
2022-11-27T13:57:14.512Z,54.87
2022-11-27T13:59:44.379Z,53.77
2022-11-27T14:02:14.185Z,53.23
2022-11-27T14:04:55.828Z,51.70
2022-11-27T14:07:41.636Z,53.60
2022-11-27T14:10:16.010Z,55.53
2022-11-27T14:12:57.953Z,51.53
2022-11-27T14:15:28.528Z,50.87
2022-11-27T14:18:09.836Z,53.93
2022-11-27T14:20:48.703Z,53.27
2022-11-27T14:23:30.022Z,51.23
2022-11-27T14:26:04.963Z,50.10
2022-11-27T14:28:38.613Z,49.87
2022-11-27T14:31:07.223Z,52.03
2022-11-27T14:34:07.563Z,52.43
2022-11-27T14:36:36.058Z,54.07
2022-11-27T14:39:05.818Z,51.77
2022-11-27T14:41:34.830Z,53.90
2022-11-27T14:44:04.356Z,53.17
2022-11-27T14:46:37.060Z,49.67
2022-11-27T14:49:19.561Z,67.10
2022-11-27T14:51:49.697Z,71.53
2022-11-27T14:54:25.528Z,74.90
2022-11-27T14:56:56.513Z,80.07
2022-11-27T14:59:26.995Z,74.00
2022-11-27T15:02:05.862Z,68.63
2022-11-27T15:04:38.400Z,60.97
2022-11-27T15:07:13.646Z,59.47
2022-11-27T15:09:46.147Z,59.47
2022-11-27T15:12:21.642Z,64.57
2022-11-27T15:14:56.955Z,110.47
2022-11-27T15:17:29.665Z,61.70
2022-11-27T15:20:01.249Z,58.50
2022-11-27T15:22:29.842Z,58.87
2022-11-27T15:25:00.639Z,60.97
2022-11-27T15:27:35.470Z,66.23
2022-11-27T15:30:13.850Z,70.97
2022-11-27T15:32:52.439Z,69.77
2022-11-27T15:35:27.076Z,65.53
2022-11-27T15:38:00.316Z,62.53
2022-11-27T15:40:33.491Z,70.57
2022-11-27T15:43:02.002Z,75.07
2022-11-27T15:45:32.740Z,92.83
2022-11-27T15:48:03.018Z,94.20
2022-11-27T15:50:35.563Z,137.30
2022-11-27T15:53:04.218Z,84.87
2022-11-27T15:55:36.193Z,64.57
2022-11-27T15:58:04.849Z,69.57
2022-11-27T16:00:35.314Z,59.97
2022-11-27T16:03:03.953Z,58.97
2022-11-27T16:05:32.753Z,64.73
2022-11-27T16:08:07.731Z,56.77
2022-11-27T16:10:36.313Z,59.80
2022-11-27T16:13:04.915Z,59.93
2022-11-27T16:15:34.239Z,63.67
2022-11-27T16:18:03.950Z,77.27
2022-11-27T16:20:34.590Z,80.53
2022-11-27T16:23:04.536Z,71.27
2022-11-27T16:25:33.074Z,77.63
2022-11-27T16:28:03.297Z,64.63
2022-11-27T16:30:33.254Z,64.67
2022-11-27T16:33:03.126Z,59.63
2022-11-27T16:35:32.393Z,63.30
2022-11-27T16:38:00.818Z,63.20
2022-11-27T16:40:34.845Z,57.10
2022-11-27T16:43:04.113Z,58.30
2022-11-27T16:45:38.119Z,58.77
2022-11-27T16:48:06.892Z,54.70
2022-11-27T16:50:36.429Z,63.93
2022-11-27T16:53:05.261Z,57.40
2022-11-27T16:55:38.600Z,57.57
2022-11-27T16:58:07.033Z,53.03
2022-11-27T17:00:36.096Z,55.87
2022-11-27T17:03:05.171Z,62.80
2022-11-27T17:05:34.039Z,57.93
2022-11-27T17:08:04.723Z,65.13
2022-11-27T17:10:33.601Z,60.67
2022-11-27T17:13:03.594Z,52.83
2022-11-27T17:15:37.652Z,55.37
2022-11-27T17:18:09.298Z,58.00
2022-11-27T17:20:40.891Z,58.07
2022-11-27T17:23:09.967Z,57.73
2022-11-27T17:25:40.737Z,61.03
2022-11-27T17:28:10.691Z,57.97
2022-11-27T17:30:40.060Z,57.60
2022-11-27T17:33:09.991Z,60.80
2022-11-27T17:35:38.743Z,60.53
2022-11-27T17:38:08.552Z,55.60
2022-11-27T17:40:37.127Z,74.77
2022-11-27T17:43:05.658Z,90.10
2022-11-27T17:45:37.261Z,67.33
2022-11-27T17:48:07.527Z,60.73
2022-11-27T17:50:36.997Z,59.23
2022-11-27T17:53:07.901Z,56.43
2022-11-27T17:55:37.291Z,54.83
2022-11-27T17:58:08.617Z,58.53
2022-11-27T18:00:39.995Z,60.50
2022-11-27T18:03:09.293Z,56.50
2022-11-27T18:05:38.663Z,58.73
2022-11-27T18:08:08.024Z,61.17
2022-11-27T18:10:38.819Z,67.83
2022-11-27T18:13:07.332Z,65.47
2022-11-27T18:15:36.121Z,60.47
2022-11-27T18:18:08.854Z,62.33
2022-11-27T18:20:40.517Z,62.80
2022-11-27T18:23:09.042Z,61.00
2022-11-27T18:25:47.728Z,112.83
2022-11-27T18:28:18.160Z,70.47
2022-11-27T18:30:46.617Z,67.13
2022-11-27T18:33:16.482Z,64.20
2022-11-27T18:35:46.366Z,83.63
2022-11-27T18:38:16.486Z,79.87
2022-11-27T18:40:46.251Z,78.80
2022-11-27T18:43:14.942Z,68.03
2022-11-27T18:45:47.145Z,66.37
2022-11-27T18:48:17.266Z,70.53
2022-11-27T18:50:46.861Z,68.43
2022-11-27T18:53:15.632Z,67.57
2022-11-27T18:55:48.856Z,71.07
2022-11-27T18:58:20.678Z,67.90
2022-11-27T19:00:51.530Z,69.57
2022-11-27T19:03:22.634Z,66.93
2022-11-27T19:05:52.249Z,59.93
2022-11-27T19:08:21.905Z,66.63
2022-11-27T19:10:52.369Z,66.10
2022-11-27T19:13:22.220Z,68.70
2022-11-27T19:15:56.793Z,66.33
2022-11-27T19:18:28.562Z,65.93
2022-11-27T19:21:01.912Z,107.30
2022-11-27T19:23:39.254Z,66.27
2022-11-27T19:26:14.295Z,67.67
2022-11-27T19:28:45.958Z,63.20
2022-11-27T19:31:21.365Z,62.90
2022-11-27T19:33:59.264Z,60.27
2022-11-27T19:36:30.958Z,60.10
2022-11-27T19:39:03.116Z,61.97
2022-11-27T19:41:37.576Z,62.33
2022-11-27T19:44:11.112Z,63.07
2022-11-27T19:46:46.673Z,61.40
2022-11-27T19:49:20.022Z,59.43
2022-11-27T19:51:51.570Z,60.43
2022-11-27T19:54:22.241Z,66.07
2022-11-27T19:56:57.529Z,62.13
2022-11-27T19:59:28.218Z,62.00
2022-11-27T20:02:00.397Z,62.27
2022-11-27T20:04:34.268Z,65.20
2022-11-27T20:07:07.734Z,79.83
2022-11-27T20:09:42.618Z,68.83
2022-11-27T20:12:14.651Z,64.07
2022-11-27T20:14:44.623Z,66.97
2022-11-27T20:17:18.367Z,57.70
2022-11-27T20:19:50.669Z,63.00
2022-11-27T20:22:21.468Z,62.97
2022-11-27T20:25:17.783Z,68.60
2022-11-27T20:27:49.504Z,74.83
2022-11-27T20:30:20.676Z,82.13
2022-11-27T20:32:56.092Z,76.77
2022-11-27T20:35:27.407Z,73.33
2022-11-27T20:38:02.500Z,77.30
2022-11-27T20:40:34.059Z,79.20
2022-11-27T20:43:08.434Z,72.70
2022-11-27T20:45:40.890Z,75.40
2022-11-27T20:48:10.121Z,79.13
2022-11-27T20:50:40.736Z,80.40
2022-11-27T20:53:12.541Z,84.17
2022-11-27T20:55:40.825Z,86.13
2022-11-27T20:58:09.902Z,79.27
2022-11-27T21:00:40.657Z,107.67
2022-11-27T21:03:11.201Z,92.17
2022-11-27T21:05:43.245Z,83.37
2022-11-27T21:08:11.418Z,82.07
2022-11-27T21:10:40.155Z,82.63
2022-11-27T21:13:08.147Z,89.27
2022-11-27T21:15:39.545Z,84.17
2022-11-27T21:18:08.075Z,86.93
2022-11-27T21:20:37.943Z,82.50
2022-11-27T21:23:07.332Z,81.77
2022-11-27T21:25:35.849Z,87.77
2022-11-27T21:28:03.827Z,82.80
2022-11-27T21:30:31.785Z,83.90
2022-11-27T21:33:02.984Z,88.57
2022-11-27T21:35:32.765Z,85.83
2022-11-27T21:38:04.066Z,89.60
2022-11-27T21:40:33.467Z,90.97
2022-11-27T21:43:04.540Z,90.73
2022-11-27T21:45:33.032Z,85.03
2022-11-27T21:48:01.192Z,86.60
2022-11-27T21:50:29.373Z,81.97
2022-11-27T21:52:57.942Z,82.33
2022-11-27T21:55:26.849Z,86.03
2022-11-27T21:57:59.731Z,84.03
2022-11-27T22:00:27.840Z,83.77
2022-11-27T22:02:55.949Z,83.17
2022-11-27T22:05:24.855Z,77.43
2022-11-27T22:07:53.006Z,84.10
2022-11-27T22:10:25.319Z,81.33
2022-11-27T22:12:54.031Z,80.63
2022-11-27T22:15:23.511Z,91.77
2022-11-27T22:17:52.095Z,82.80
2022-11-27T22:20:20.224Z,84.60
2022-11-27T22:22:48.278Z,85.87
2022-11-27T22:25:19.965Z,81.13
2022-11-27T22:27:48.184Z,83.00
2022-11-27T22:30:16.598Z,90.33
2022-11-27T22:32:47.022Z,87.47
2022-11-27T22:35:15.869Z,87.57
2022-11-27T22:37:47.981Z,83.60
2022-11-27T22:40:17.734Z,86.63
2022-11-27T22:42:45.958Z,87.67
2022-11-27T22:45:14.937Z,89.97
2022-11-27T22:47:43.072Z,88.47
2022-11-27T22:50:12.929Z,86.77
2022-11-27T22:52:45.075Z,92.50
2022-11-27T22:55:13.864Z,89.27
2022-11-27T22:57:42.058Z,87.40
2022-11-27T23:00:11.805Z,82.60
2022-11-27T23:02:41.105Z,83.87
2022-11-27T23:05:09.953Z,88.47
2022-11-27T23:07:40.025Z,86.87
2022-11-27T23:10:09.882Z,85.77
2022-11-27T23:12:38.015Z,92.53
2022-11-27T23:15:07.894Z,88.63
2022-11-27T23:17:40.596Z,83.70
2022-11-27T23:20:09.716Z,84.73
2022-11-27T23:22:39.207Z,91.70
2022-11-27T23:25:08.035Z,111.30
2022-11-27T23:27:40.036Z,106.30
2022-11-27T23:30:09.919Z,90.47
2022-11-27T23:32:39.442Z,85.03
2022-11-27T23:35:08.896Z,86.10
2022-11-27T23:37:41.719Z,93.37
2022-11-27T23:40:12.886Z,100.27
2022-11-27T23:42:42.793Z,89.10
2022-11-27T23:45:12.926Z,87.40
2022-11-27T23:47:44.527Z,85.50
2022-11-27T23:50:14.027Z,83.63
2022-11-27T23:52:42.979Z,87.83
2022-11-27T23:55:16.996Z,84.73
2022-11-27T23:57:45.175Z,89.53
